Time;durP1;ratioP1;P1;durP2;ratioP2;P2;SDS_P1;SDS_P2;PMS_P1;PMS_P2;Temp;Humidity;BMP_temperature;BMP_pressure;BME280_temperature;BME280_humidity;BME280_pressure;Samples;Min_cycle;Max_cycle;Signal;HPM_P1;HPM_P2
2022/12/16 00:04:27;;;;;;;4.03;1.05;;;13.40;55.70;;;;;;10435743;28;20084;-27
2022/12/16 00:09:29;;;;;;;2.03;0.60;;;14.20;56.00;;;;;;10440603;28;20075;-27
2022/12/16 00:14:31;;;;;;;1.85;0.88;;;15.20;55.60;;;;;;10437084;28;20137;-28
2022/12/16 00:19:35;;;;;;;1.90;0.52;;;15.10;55.10;;;;;;10453792;28;20124;-26
2022/12/16 00:24:37;;;;;;;0.45;0.32;;;15.20;56.10;;;;;;10452196;28;20685;-31
2022/12/16 00:29:39;;;;;;;1.67;0.63;;;15.30;55.10;;;;;;10446651;28;20103;-26
2022/12/16 00:34:42;;;;;;;1.13;0.60;;;15.40;54.90;;;;;;10455120;28;20053;-29
2022/12/16 00:39:44;;;;;;;1.60;0.50;;;15.30;55.00;;;;;;10450182;28;20123;-28
2022/12/16 00:44:45;;;;;;;1.48;0.70;;;15.40;54.80;;;;;;10456939;28;20177;-30
2022/12/16 00:49:49;;;;;;;1.45;0.52;;;15.40;54.90;;;;;;10456787;28;20136;-30
2022/12/16 00:54:50;;;;;;;2.38;0.60;;;15.30;55.10;;;;;;10444261;28;20095;-30
2022/12/16 00:59:53;;;;;;;2.43;0.30;;;15.30;54.90;;;;;;10452298;28;20053;-28
2022/12/16 01:04:57;;;;;;;1.23;0.50;;;15.30;54.90;;;;;;10450468;28;20501;-29
2022/12/16 01:09:59;;;;;;;0.80;0.45;;;15.20;55.00;;;;;;10450155;28;20077;-22
2022/12/16 01:15:01;;;;;;;1.07;0.67;;;15.30;54.80;;;;;;10447135;28;20053;-35
2022/12/16 01:20:04;;;;;;;1.07;0.50;;;15.30;54.80;;;;;;10456311;28;20041;-26
2022/12/16 01:25:07;;;;;;;1.10;0.68;;;15.30;54.80;;;;;;10461461;28;20103;-26
2022/12/16 01:30:11;;;;;;;1.60;0.70;;;15.20;54.70;;;;;;10443264;28;20055;-28
2022/12/16 01:35:14;;;;;;;0.93;0.40;;;15.20;54.80;;;;;;10445098;28;20408;-33
2022/12/16 01:40:19;;;;;;;2.70;0.63;;;15.30;54.80;;;;;;10440749;28;20049;-29
2022/12/16 01:45:30;;;;;;;2.45;0.70;;;15.30;54.70;;;;;;10448669;28;20049;-27
2022/12/16 01:50:33;;;;;;;1.40;0.82;;;15.20;54.70;;;;;;10455923;28;20405;-27
2022/12/16 01:55:41;;;;;;;2.08;0.60;;;15.30;55.30;;;;;;10449947;28;20056;-29
2022/12/16 02:00:43;;;;;;;2.90;1.40;;;15.20;54.60;;;;;;10457794;28;20184;-27
2022/12/16 02:05:47;;;;;;;2.47;0.60;;;15.20;54.70;;;;;;10452271;28;20179;-27
2022/12/16 02:11:06;;;;;;;1.05;0.50;;;15.20;54.60;;;;;;10457871;28;20707;-29
2022/12/16 02:16:14;;;;;;;1.85;0.50;;;15.20;54.70;;;;;;10441934;28;20045;-28
2022/12/16 02:21:38;;;;;;;1.27;0.55;;;15.20;54.70;;;;;;10448550;28;20075;-26
2022/12/16 02:27:09;;;;;;;4.03;0.43;;;15.20;54.70;;;;;;10444674;28;20390;-28
2022/12/16 02:32:20;;;;;;;1.58;0.93;;;15.20;54.60;;;;;;10443922;28;20045;-28
2022/12/16 02:37:33;;;;;;;1.15;0.60;;;15.20;54.60;;;;;;10467277;28;20049;-31
2022/12/16 02:42:41;;;;;;;1.58;0.63;;;15.20;54.60;;;;;;10446053;28;20164;-28
2022/12/16 02:47:46;;;;;;;2.13;0.95;;;15.20;54.60;;;;;;10448728;28;20636;-27
2022/12/16 02:52:49;;;;;;;0.63;0.55;;;15.20;54.60;;;;;;10432596;28;20049;-30
2022/12/16 02:58:04;;;;;;;1.42;0.63;;;15.10;54.50;;;;;;10448384;28;20053;-28
2022/12/16 03:03:12;;;;;;;1.50;0.65;;;15.10;54.50;;;;;;10448027;28;20131;-27
2022/12/16 03:08:19;;;;;;;1.98;0.40;;;15.10;54.40;;;;;;10438625;28;20060;-28
2022/12/16 03:13:22;;;;;;;2.25;0.50;;;15.10;54.50;;;;;;10443141;28;20059;-27
2022/12/16 03:18:26;;;;;;;1.08;0.40;;;15.10;54.30;;;;;;10436824;28;20502;-27
2022/12/16 03:23:32;;;;;;;1.02;0.55;;;15.10;54.50;;;;;;10441988;28;20090;-27
2022/12/16 03:28:44;;;;;;;2.50;0.80;;;15.10;54.40;;;;;;10455169;28;20052;-25
2022/12/16 03:33:52;;;;;;;0.95;0.43;;;15.10;54.40;;;;;;10441554;28;20740;-27
2022/12/16 03:38:55;;;;;;;1.65;0.73;;;15.10;54.30;;;;;;10460690;28;20067;-27
2022/12/16 03:43:57;;;;;;;2.67;0.80;;;15.10;54.40;;;;;;10450530;28;20045;-28
2022/12/16 03:49:01;;;;;;;1.30;0.50;;;15.00;54.30;;;;;;10463770;28;20067;-28
2022/12/16 03:54:03;;;;;;;1.45;0.60;;;15.10;54.40;;;;;;10441706;28;20077;-27
2022/12/16 03:59:05;;;;;;;2.67;0.50;;;15.00;54.20;;;;;;10450925;28;20139;-27
2022/12/16 04:04:08;;;;;;;1.37;0.50;;;15.00;54.30;;;;;;10436819;28;20107;-27
2022/12/16 04:09:10;;;;;;;0.90;0.60;;;15.00;54.20;;;;;;10443148;28;20371;-30
2022/12/16 04:24:55;;;;;;;0.70;0.47;;;15.00;54.20;;;;;;10463079;28;20048;-27
